sensor_id;sensor_type;location;lat;lon;timestamp;P1;durP1;ratioP1;P2;durP2;ratioP2
11342;SDS011;5726;42.160;24.746;2024-03-02T00:02:12;42.47;;;21.83;;
11342;SDS011;5726;42.160;24.746;2024-03-02T00:04:39;37.43;;;19.80;;
11342;SDS011;5726;42.160;24.746;2024-03-02T00:07:05;41.03;;;20.63;;
11342;SDS011;5726;42.160;24.746;2024-03-02T00:09:31;50.83;;;22.70;;
11342;SDS011;5726;42.160;24.746;2024-03-02T00:11:58;49.80;;;21.20;;
11342;SDS011;5726;42.160;24.746;2024-03-02T00:14:30;45.40;;;21.40;;
11342;SDS011;5726;42.160;24.746;2024-03-02T00:16:56;43.03;;;20.23;;
11342;SDS011;5726;42.160;24.746;2024-03-02T00:19:22;47.07;;;21.33;;
11342;SDS011;5726;42.160;24.746;2024-03-02T00:21:48;41.67;;;20.97;;
11342;SDS011;5726;42.160;24.746;2024-03-02T00:24:34;45.60;;;22.40;;
11342;SDS011;5726;42.160;24.746;2024-03-02T00:27:00;41.90;;;21.47;;
11342;SDS011;5726;42.160;24.746;2024-03-02T00:29:28;48.73;;;22.03;;
11342;SDS011;5726;42.160;24.746;2024-03-02T00:31:54;41.23;;;20.67;;
11342;SDS011;5726;42.160;24.746;2024-03-02T00:34:21;46.13;;;21.70;;
11342;SDS011;5726;42.160;24.746;2024-03-02T00:36:47;45.37;;;21.70;;
11342;SDS011;5726;42.160;24.746;2024-03-02T00:39:14;48.90;;;23.43;;
11342;SDS011;5726;42.160;24.746;2024-03-02T00:41:42;50.97;;;22.40;;
11342;SDS011;5726;42.160;24.746;2024-03-02T00:44:09;47.40;;;21.83;;
11342;SDS011;5726;42.160;24.746;2024-03-02T00:46:40;51.97;;;22.40;;
11342;SDS011;5726;42.160;24.746;2024-03-02T00:49:17;48.93;;;22.60;;
11342;SDS011;5726;42.160;24.746;2024-03-02T00:51:49;51.50;;;22.70;;
11342;SDS011;5726;42.160;24.746;2024-03-02T00:54:23;45.47;;;20.70;;
11342;SDS011;5726;42.160;24.746;2024-03-02T00:56:51;48.03;;;21.87;;
11342;SDS011;5726;42.160;24.746;2024-03-02T00:59:20;46.30;;;22.03;;
11342;SDS011;5726;42.160;24.746;2024-03-02T01:01:47;46.27;;;22.43;;
11342;SDS011;5726;42.160;24.746;2024-03-02T01:04:14;48.53;;;21.50;;
11342;SDS011;5726;42.160;24.746;2024-03-02T01:06:39;48.20;;;22.43;;
11342;SDS011;5726;42.160;24.746;2024-03-02T01:09:05;45.53;;;22.80;;
11342;SDS011;5726;42.160;24.746;2024-03-02T01:11:30;49.23;;;22.27;;
11342;SDS011;5726;42.160;24.746;2024-03-02T01:13:56;47.00;;;22.43;;
11342;SDS011;5726;42.160;24.746;2024-03-02T01:16:21;54.57;;;23.70;;
11342;SDS011;5726;42.160;24.746;2024-03-02T01:18:47;50.13;;;21.93;;
11342;SDS011;5726;42.160;24.746;2024-03-02T01:21:13;54.90;;;23.87;;
11342;SDS011;5726;42.160;24.746;2024-03-02T01:23:38;51.80;;;23.23;;
11342;SDS011;5726;42.160;24.746;2024-03-02T01:26:04;58.17;;;23.73;;
11342;SDS011;5726;42.160;24.746;2024-03-02T01:28:29;69.23;;;25.13;;
11342;SDS011;5726;42.160;24.746;2024-03-02T01:30:55;56.73;;;25.30;;
11342;SDS011;5726;42.160;24.746;2024-03-02T01:33:21;63.97;;;24.93;;
11342;SDS011;5726;42.160;24.746;2024-03-02T01:35:46;63.57;;;27.47;;
11342;SDS011;5726;42.160;24.746;2024-03-02T01:38:12;68.87;;;24.93;;
11342;SDS011;5726;42.160;24.746;2024-03-02T01:40:38;56.53;;;24.77;;
11342;SDS011;5726;42.160;24.746;2024-03-02T01:43:04;60.93;;;24.87;;
11342;SDS011;5726;42.160;24.746;2024-03-02T01:45:31;61.03;;;24.50;;
11342;SDS011;5726;42.160;24.746;2024-03-02T01:47:57;67.10;;;25.67;;
11342;SDS011;5726;42.160;24.746;2024-03-02T01:50:27;59.83;;;25.87;;
11342;SDS011;5726;42.160;24.746;2024-03-02T01:52:57;62.17;;;25.37;;
11342;SDS011;5726;42.160;24.746;2024-03-02T01:55:23;66.83;;;25.60;;
11342;SDS011;5726;42.160;24.746;2024-03-02T01:57:49;70.40;;;27.20;;
11342;SDS011;5726;42.160;24.746;2024-03-02T02:00:19;58.87;;;24.40;;
11342;SDS011;5726;42.160;24.746;2024-03-02T02:02:46;62.50;;;26.43;;
11342;SDS011;5726;42.160;24.746;2024-03-02T02:05:12;57.83;;;23.77;;
11342;SDS011;5726;42.160;24.746;2024-03-02T02:07:39;56.43;;;23.10;;
11342;SDS011;5726;42.160;24.746;2024-03-02T02:10:06;56.33;;;23.77;;
11342;SDS011;5726;42.160;24.746;2024-03-02T02:12:32;46.87;;;22.33;;
11342;SDS011;5726;42.160;24.746;2024-03-02T02:14:57;52.80;;;23.33;;
11342;SDS011;5726;42.160;24.746;2024-03-02T02:17:23;58.10;;;22.77;;
11342;SDS011;5726;42.160;24.746;2024-03-02T02:19:48;53.10;;;22.07;;
11342;SDS011;5726;42.160;24.746;2024-03-02T02:22:14;105.43;;;58.83;;
11342;SDS011;5726;42.160;24.746;2024-03-02T02:24:42;77.50;;;35.70;;
11342;SDS011;5726;42.160;24.746;2024-03-02T02:27:08;59.63;;;29.13;;
11342;SDS011;5726;42.160;24.746;2024-03-02T02:29:35;48.40;;;21.93;;
11342;SDS011;5726;42.160;24.746;2024-03-02T02:32:01;48.20;;;22.37;;
11342;SDS011;5726;42.160;24.746;2024-03-02T02:34:27;49.93;;;21.87;;
11342;SDS011;5726;42.160;24.746;2024-03-02T02:36:53;50.73;;;22.90;;
11342;SDS011;5726;42.160;24.746;2024-03-02T02:39:19;54.53;;;22.60;;
11342;SDS011;5726;42.160;24.746;2024-03-02T02:41:47;48.90;;;23.43;;
11342;SDS011;5726;42.160;24.746;2024-03-02T02:44:12;54.30;;;24.23;;
11342;SDS011;5726;42.160;24.746;2024-03-02T02:46:38;58.43;;;23.37;;
11342;SDS011;5726;42.160;24.746;2024-03-02T02:49:04;59.00;;;22.43;;
11342;SDS011;5726;42.160;24.746;2024-03-02T02:51:30;56.53;;;28.03;;
11342;SDS011;5726;42.160;24.746;2024-03-02T02:53:56;58.63;;;26.93;;
11342;SDS011;5726;42.160;24.746;2024-03-02T02:56:21;79.77;;;41.43;;
11342;SDS011;5726;42.160;24.746;2024-03-02T02:58:47;45.27;;;22.40;;
11342;SDS011;5726;42.160;24.746;2024-03-02T03:01:12;46.93;;;22.30;;
11342;SDS011;5726;42.160;24.746;2024-03-02T03:03:38;48.03;;;22.13;;
11342;SDS011;5726;42.160;24.746;2024-03-02T03:06:04;44.17;;;23.07;;
11342;SDS011;5726;42.160;24.746;2024-03-02T03:08:29;54.43;;;22.17;;
11342;SDS011;5726;42.160;24.746;2024-03-02T03:10:54;55.93;;;25.27;;
11342;SDS011;5726;42.160;24.746;2024-03-02T03:13:20;58.57;;;27.60;;
11342;SDS011;5726;42.160;24.746;2024-03-02T03:15:46;69.67;;;32.00;;
11342;SDS011;5726;42.160;24.746;2024-03-02T03:18:11;52.90;;;24.27;;
11342;SDS011;5726;42.160;24.746;2024-03-02T03:20:37;47.20;;;22.93;;
11342;SDS011;5726;42.160;24.746;2024-03-02T03:23:02;50.30;;;22.40;;
11342;SDS011;5726;42.160;24.746;2024-03-02T03:25:29;45.20;;;20.67;;
11342;SDS011;5726;42.160;24.746;2024-03-02T03:27:55;46.90;;;21.23;;
11342;SDS011;5726;42.160;24.746;2024-03-02T03:30:21;48.27;;;20.47;;
11342;SDS011;5726;42.160;24.746;2024-03-02T03:32:47;54.13;;;21.50;;
11342;SDS011;5726;42.160;24.746;2024-03-02T03:35:13;44.07;;;20.20;;
11342;SDS011;5726;42.160;24.746;2024-03-02T03:37:40;48.17;;;21.33;;
11342;SDS011;5726;42.160;24.746;2024-03-02T03:40:06;54.13;;;23.70;;
11342;SDS011;5726;42.160;24.746;2024-03-02T03:42:38;48.83;;;21.47;;
11342;SDS011;5726;42.160;24.746;2024-03-02T03:45:04;51.87;;;22.50;;
11342;SDS011;5726;42.160;24.746;2024-03-02T03:47:33;43.00;;;21.60;;
11342;SDS011;5726;42.160;24.746;2024-03-02T03:49:58;44.87;;;22.17;;
11342;SDS011;5726;42.160;24.746;2024-03-02T03:52:24;43.73;;;21.73;;
11342;SDS011;5726;42.160;24.746;2024-03-02T03:54:49;44.10;;;20.97;;
11342;SDS011;5726;42.160;24.746;2024-03-02T03:57:15;51.33;;;21.90;;
11342;SDS011;5726;42.160;24.746;2024-03-02T03:59:41;42.67;;;19.47;;
11342;SDS011;5726;42.160;24.746;2024-03-02T04:02:07;42.97;;;19.87;;
11342;SDS011;5726;42.160;24.746;2024-03-02T04:04:34;43.77;;;20.20;;
11342;SDS011;5726;42.160;24.746;2024-03-02T04:06:59;45.67;;;22.13;;
11342;SDS011;5726;42.160;24.746;2024-03-02T04:09:25;46.57;;;22.23;;
11342;SDS011;5726;42.160;24.746;2024-03-02T04:11:50;47.07;;;21.03;;
11342;SDS011;5726;42.160;24.746;2024-03-02T04:14:16;47.20;;;21.30;;
11342;SDS011;5726;42.160;24.746;2024-03-02T04:16:42;51.50;;;22.13;;
11342;SDS011;5726;42.160;24.746;2024-03-02T04:19:07;48.13;;;21.77;;
11342;SDS011;5726;42.160;24.746;2024-03-02T04:21:33;50.27;;;21.60;;
11342;SDS011;5726;42.160;24.746;2024-03-02T04:23:58;47.17;;;21.73;;
11342;SDS011;5726;42.160;24.746;2024-03-02T04:26:24;51.67;;;25.00;;
11342;SDS011;5726;42.160;24.746;2024-03-02T04:28:51;46.90;;;22.60;;
11342;SDS011;5726;42.160;24.746;2024-03-02T04:31:17;49.97;;;24.67;;
11342;SDS011;5726;42.160;24.746;2024-03-02T04:33:42;46.07;;;23.57;;
11342;SDS011;5726;42.160;24.746;2024-03-02T04:36:08;45.53;;;23.20;;
11342;SDS011;5726;42.160;24.746;2024-03-02T04:38:37;49.63;;;23.50;;
11342;SDS011;5726;42.160;24.746;2024-03-02T04:41:03;51.37;;;22.73;;
11342;SDS011;5726;42.160;24.746;2024-03-02T04:43:31;47.17;;;23.10;;
11342;SDS011;5726;42.160;24.746;2024-03-02T04:45:57;49.73;;;21.87;;
11342;SDS011;5726;42.160;24.746;2024-03-02T04:48:23;50.07;;;21.13;;
11342;SDS011;5726;42.160;24.746;2024-03-02T04:50:49;43.77;;;22.13;;
11342;SDS011;5726;42.160;24.746;2024-03-02T04:53:14;50.17;;;21.87;;
11342;SDS011;5726;42.160;24.746;2024-03-02T04:55:40;44.77;;;20.87;;
11342;SDS011;5726;42.160;24.746;2024-03-02T04:58:06;44.70;;;20.93;;
11342;SDS011;5726;42.160;24.746;2024-03-02T05:00:32;48.60;;;22.03;;
11342;SDS011;5726;42.160;24.746;2024-03-02T05:02:58;44.90;;;20.77;;
11342;SDS011;5726;42.160;24.746;2024-03-02T05:05:23;52.20;;;21.30;;
11342;SDS011;5726;42.160;24.746;2024-03-02T05:07:49;48.13;;;21.60;;
11342;SDS011;5726;42.160;24.746;2024-03-02T05:10:14;49.73;;;20.60;;
11342;SDS011;5726;42.160;24.746;2024-03-02T05:12:40;51.67;;;20.83;;
11342;SDS011;5726;42.160;24.746;2024-03-02T05:15:08;44.87;;;20.33;;
11342;SDS011;5726;42.160;24.746;2024-03-02T05:17:38;51.07;;;21.33;;
11342;SDS011;5726;42.160;24.746;2024-03-02T05:20:06;45.63;;;19.93;;
11342;SDS011;5726;42.160;24.746;2024-03-02T05:22:35;42.63;;;18.43;;
11342;SDS011;5726;42.160;24.746;2024-03-02T05:25:02;39.53;;;20.00;;
11342;SDS011;5726;42.160;24.746;2024-03-02T05:27:28;44.17;;;19.87;;
11342;SDS011;5726;42.160;24.746;2024-03-02T05:29:54;50.73;;;21.20;;
11342;SDS011;5726;42.160;24.746;2024-03-02T05:32:19;40.17;;;19.73;;
11342;SDS011;5726;42.160;24.746;2024-03-02T05:34:45;44.83;;;20.57;;
11342;SDS011;5726;42.160;24.746;2024-03-02T05:37:11;39.63;;;20.93;;
11342;SDS011;5726;42.160;24.746;2024-03-02T05:39:36;40.90;;;18.73;;
11342;SDS011;5726;42.160;24.746;2024-03-02T05:42:02;35.63;;;18.37;;
11342;SDS011;5726;42.160;24.746;2024-03-02T05:44:28;40.23;;;17.83;;
11342;SDS011;5726;42.160;24.746;2024-03-02T05:46:54;40.53;;;18.87;;
11342;SDS011;5726;42.160;24.746;2024-03-02T05:49:20;38.17;;;18.67;;
11342;SDS011;5726;42.160;24.746;2024-03-02T05:51:45;36.13;;;17.50;;
11342;SDS011;5726;42.160;24.746;2024-03-02T05:54:11;41.03;;;18.13;;
11342;SDS011;5726;42.160;24.746;2024-03-02T05:56:37;36.63;;;17.27;;
11342;SDS011;5726;42.160;24.746;2024-03-02T05:59:02;37.17;;;17.87;;
11342;SDS011;5726;42.160;24.746;2024-03-02T06:01:46;36.73;;;17.93;;
11342;SDS011;5726;42.160;24.746;2024-03-02T06:04:13;35.40;;;16.20;;
11342;SDS011;5726;42.160;24.746;2024-03-02T06:06:39;36.93;;;17.73;;
11342;SDS011;5726;42.160;24.746;2024-03-02T06:09:06;36.80;;;17.57;;
11342;SDS011;5726;42.160;24.746;2024-03-02T06:11:37;36.23;;;17.13;;
11342;SDS011;5726;42.160;24.746;2024-03-02T06:14:05;36.20;;;17.27;;
11342;SDS011;5726;42.160;24.746;2024-03-02T06:16:32;32.03;;;16.70;;
11342;SDS011;5726;42.160;24.746;2024-03-02T06:18:58;35.40;;;16.67;;
11342;SDS011;5726;42.160;24.746;2024-03-02T06:21:23;38.47;;;15.60;;
11342;SDS011;5726;42.160;24.746;2024-03-02T06:23:49;28.37;;;14.57;;
11342;SDS011;5726;42.160;24.746;2024-03-02T06:26:15;35.53;;;16.80;;
11342;SDS011;5726;42.160;24.746;2024-03-02T06:28:40;38.57;;;19.67;;
11342;SDS011;5726;42.160;24.746;2024-03-02T06:31:06;40.30;;;19.40;;
11342;SDS011;5726;42.160;24.746;2024-03-02T06:33:32;52.10;;;23.47;;
11342;SDS011;5726;42.160;24.746;2024-03-02T06:35:57;43.90;;;19.83;;
11342;SDS011;5726;42.160;24.746;2024-03-02T06:38:23;47.27;;;22.40;;
11342;SDS011;5726;42.160;24.746;2024-03-02T06:40:50;36.63;;;18.43;;
11342;SDS011;5726;42.160;24.746;2024-03-02T06:43:15;40.57;;;19.47;;
11342;SDS011;5726;42.160;24.746;2024-03-02T06:45:41;31.93;;;17.40;;
11342;SDS011;5726;42.160;24.746;2024-03-02T06:48:06;29.37;;;14.27;;
11342;SDS011;5726;42.160;24.746;2024-03-02T06:50:32;33.40;;;17.67;;
11342;SDS011;5726;42.160;24.746;2024-03-02T06:52:58;27.70;;;15.03;;
11342;SDS011;5726;42.160;24.746;2024-03-02T06:55:23;29.50;;;14.70;;
11342;SDS011;5726;42.160;24.746;2024-03-02T06:57:52;26.60;;;14.37;;
11342;SDS011;5726;42.160;24.746;2024-03-02T07:00:18;25.77;;;14.40;;
11342;SDS011;5726;42.160;24.746;2024-03-02T07:02:45;25.70;;;13.40;;
11342;SDS011;5726;42.160;24.746;2024-03-02T07:05:11;29.97;;;15.10;;
11342;SDS011;5726;42.160;24.746;2024-03-02T07:07:36;29.70;;;15.17;;
11342;SDS011;5726;42.160;24.746;2024-03-02T07:10:05;21.63;;;12.93;;
11342;SDS011;5726;42.160;24.746;2024-03-02T07:12:32;29.27;;;13.63;;
11342;SDS011;5726;42.160;24.746;2024-03-02T07:14:58;24.50;;;13.20;;
11342;SDS011;5726;42.160;24.746;2024-03-02T07:17:30;26.43;;;14.37;;
11342;SDS011;5726;42.160;24.746;2024-03-02T07:19:56;25.73;;;14.27;;
11342;SDS011;5726;42.160;24.746;2024-03-02T07:22:22;24.93;;;13.70;;
11342;SDS011;5726;42.160;24.746;2024-03-02T07:24:48;25.20;;;14.50;;
11342;SDS011;5726;42.160;24.746;2024-03-02T07:27:14;26.60;;;14.13;;
11342;SDS011;5726;42.160;24.746;2024-03-02T07:29:41;27.40;;;14.97;;
11342;SDS011;5726;42.160;24.746;2024-03-02T07:32:07;29.13;;;13.77;;
11342;SDS011;5726;42.160;24.746;2024-03-02T07:34:34;26.23;;;13.43;;
11342;SDS011;5726;42.160;24.746;2024-03-02T07:37:00;29.07;;;14.80;;
11342;SDS011;5726;42.160;24.746;2024-03-02T07:39:25;27.57;;;14.43;;
11342;SDS011;5726;42.160;24.746;2024-03-02T07:41:51;27.30;;;15.57;;
11342;SDS011;5726;42.160;24.746;2024-03-02T07:44:17;29.63;;;14.97;;
11342;SDS011;5726;42.160;24.746;2024-03-02T07:46:44;30.00;;;15.50;;
11342;SDS011;5726;42.160;24.746;2024-03-02T07:49:20;27.33;;;15.63;;
11342;SDS011;5726;42.160;24.746;2024-03-02T07:51:46;29.97;;;15.43;;
11342;SDS011;5726;42.160;24.746;2024-03-02T07:54:11;27.57;;;14.63;;
11342;SDS011;5726;42.160;24.746;2024-03-02T07:56:37;26.90;;;14.87;;
11342;SDS011;5726;42.160;24.746;2024-03-02T07:59:03;25.13;;;15.27;;
11342;SDS011;5726;42.160;24.746;2024-03-02T08:01:29;28.00;;;14.03;;
11342;SDS011;5726;42.160;24.746;2024-03-02T08:03:55;28.47;;;16.33;;
11342;SDS011;5726;42.160;24.746;2024-03-02T08:06:23;30.03;;;16.70;;
11342;SDS011;5726;42.160;24.746;2024-03-02T08:08:52;31.23;;;17.23;;
11342;SDS011;5726;42.160;24.746;2024-03-02T08:11:27;28.73;;;16.60;;
11342;SDS011;5726;42.160;24.746;2024-03-02T08:13:52;32.27;;;16.53;;
11342;SDS011;5726;42.160;24.746;2024-03-02T08:16:20;27.50;;;16.93;;
11342;SDS011;5726;42.160;24.746;2024-03-02T08:18:47;32.10;;;16.63;;
11342;SDS011;5726;42.160;24.746;2024-03-02T08:21:14;31.30;;;15.13;;
11342;SDS011;5726;42.160;24.746;2024-03-02T08:23:40;30.33;;;16.27;;
11342;SDS011;5726;42.160;24.746;2024-03-02T08:26:07;33.40;;;18.87;;
11342;SDS011;5726;42.160;24.746;2024-03-02T08:28:33;26.53;;;15.67;;
11342;SDS011;5726;42.160;24.746;2024-03-02T08:30:58;22.73;;;13.97;;
11342;SDS011;5726;42.160;24.746;2024-03-02T08:33:24;30.50;;;15.80;;
11342;SDS011;5726;42.160;24.746;2024-03-02T08:35:50;29.20;;;16.60;;
11342;SDS011;5726;42.160;24.746;2024-03-02T08:38:16;31.60;;;17.07;;
11342;SDS011;5726;42.160;24.746;2024-03-02T08:40:41;31.63;;;17.13;;
11342;SDS011;5726;42.160;24.746;2024-03-02T08:43:07;36.40;;;18.60;;
11342;SDS011;5726;42.160;24.746;2024-03-02T08:45:33;34.83;;;17.47;;
11342;SDS011;5726;42.160;24.746;2024-03-02T08:47:59;33.60;;;18.73;;
11342;SDS011;5726;42.160;24.746;2024-03-02T08:50:25;35.90;;;19.40;;
11342;SDS011;5726;42.160;24.746;2024-03-02T08:52:51;32.43;;;16.97;;
11342;SDS011;5726;42.160;24.746;2024-03-02T08:55:16;33.80;;;16.87;;
11342;SDS011;5726;42.160;24.746;2024-03-02T08:57:42;37.43;;;18.57;;
11342;SDS011;5726;42.160;24.746;2024-03-02T09:00:07;41.03;;;21.53;;
11342;SDS011;5726;42.160;24.746;2024-03-02T09:02:34;36.50;;;18.17;;
11342;SDS011;5726;42.160;24.746;2024-03-02T09:04:59;35.13;;;17.10;;
11342;SDS011;5726;42.160;24.746;2024-03-02T09:07:25;37.80;;;18.10;;
11342;SDS011;5726;42.160;24.746;2024-03-02T09:09:51;34.13;;;16.93;;
11342;SDS011;5726;42.160;24.746;2024-03-02T09:12:17;37.17;;;17.90;;
11342;SDS011;5726;42.160;24.746;2024-03-02T09:14:43;40.77;;;21.10;;
11342;SDS011;5726;42.160;24.746;2024-03-02T09:17:09;36.87;;;17.60;;
11342;SDS011;5726;42.160;24.746;2024-03-02T09:19:36;32.20;;;16.60;;
11342;SDS011;5726;42.160;24.746;2024-03-02T09:22:02;31.80;;;17.23;;
11342;SDS011;5726;42.160;24.746;2024-03-02T09:24:30;30.60;;;16.53;;
11342;SDS011;5726;42.160;24.746;2024-03-02T09:26:56;33.70;;;18.37;;
11342;SDS011;5726;42.160;24.746;2024-03-02T09:29:21;32.93;;;16.90;;
11342;SDS011;5726;42.160;24.746;2024-03-02T09:31:47;38.07;;;18.27;;
11342;SDS011;5726;42.160;24.746;2024-03-02T09:34:12;37.13;;;17.73;;
11342;SDS011;5726;42.160;24.746;2024-03-02T09:36:39;31.73;;;16.90;;
11342;SDS011;5726;42.160;24.746;2024-03-02T09:39:05;42.27;;;19.67;;
11342;SDS011;5726;42.160;24.746;2024-03-02T09:41:33;36.67;;;18.50;;
11342;SDS011;5726;42.160;24.746;2024-03-02T09:43:58;36.27;;;19.13;;
11342;SDS011;5726;42.160;24.746;2024-03-02T09:46:24;39.60;;;19.77;;
11342;SDS011;5726;42.160;24.746;2024-03-02T09:48:50;40.53;;;20.23;;
11342;SDS011;5726;42.160;24.746;2024-03-02T09:51:16;39.80;;;19.40;;
11342;SDS011;5726;42.160;24.746;2024-03-02T09:53:44;39.73;;;19.40;;
11342;SDS011;5726;42.160;24.746;2024-03-02T09:56:11;35.90;;;18.40;;
11342;SDS011;5726;42.160;24.746;2024-03-02T09:58:36;39.13;;;19.60;;
11342;SDS011;5726;42.160;24.746;2024-03-02T10:01:05;43.13;;;21.77;;
11342;SDS011;5726;42.160;24.746;2024-03-02T10:03:31;36.30;;;18.40;;
11342;SDS011;5726;42.160;24.746;2024-03-02T10:08:47;44.67;;;18.93;;
11342;SDS011;5726;42.160;24.746;2024-03-02T10:14:05;33.60;;;17.37;;
11342;SDS011;5726;42.160;24.746;2024-03-02T10:19:17;35.57;;;17.70;;
11342;SDS011;5726;42.160;24.746;2024-03-02T10:21:47;29.07;;;16.43;;
11342;SDS011;5726;42.160;24.746;2024-03-02T10:24:20;35.47;;;17.77;;
11342;SDS011;5726;42.160;24.746;2024-03-02T10:26:47;35.67;;;18.20;;
11342;SDS011;5726;42.160;24.746;2024-03-02T10:29:13;36.30;;;18.53;;
11342;SDS011;5726;42.160;24.746;2024-03-02T10:31:39;34.73;;;17.00;;
11342;SDS011;5726;42.160;24.746;2024-03-02T10:34:09;34.80;;;16.90;;
11342;SDS011;5726;42.160;24.746;2024-03-02T10:36:36;34.07;;;17.93;;
11342;SDS011;5726;42.160;24.746;2024-03-02T10:39:03;35.93;;;17.30;;
11342;SDS011;5726;42.160;24.746;2024-03-02T10:41:29;36.80;;;17.77;;
11342;SDS011;5726;42.160;24.746;2024-03-02T10:44:03;36.13;;;18.23;;
11342;SDS011;5726;42.160;24.746;2024-03-02T10:46:34;33.73;;;16.73;;
11342;SDS011;5726;42.160;24.746;2024-03-02T10:49:01;35.23;;;17.67;;
11342;SDS011;5726;42.160;24.746;2024-03-02T10:51:29;34.67;;;17.50;;
11342;SDS011;5726;42.160;24.746;2024-03-02T10:54:01;33.00;;;16.33;;
11342;SDS011;5726;42.160;24.746;2024-03-02T11:01:59;34.33;;;17.07;;
11342;SDS011;5726;42.160;24.746;2024-03-02T11:04:26;34.47;;;17.90;;
11342;SDS011;5726;42.160;24.746;2024-03-02T11:06:54;32.13;;;17.37;;
11342;SDS011;5726;42.160;24.746;2024-03-02T11:09:26;37.83;;;18.37;;
11342;SDS011;5726;42.160;24.746;2024-03-02T11:11:56;44.60;;;21.30;;
11342;SDS011;5726;42.160;24.746;2024-03-02T11:14:30;40.43;;;19.77;;
11342;SDS011;5726;42.160;24.746;2024-03-02T11:17:00;42.10;;;20.93;;
11342;SDS011;5726;42.160;24.746;2024-03-02T11:19:28;43.13;;;20.13;;
11342;SDS011;5726;42.160;24.746;2024-03-02T11:21:55;39.60;;;20.50;;
11342;SDS011;5726;42.160;24.746;2024-03-02T11:26:53;33.87;;;18.97;;
11342;SDS011;5726;42.160;24.746;2024-03-02T11:32:15;41.27;;;21.20;;
11342;SDS011;5726;42.160;24.746;2024-03-02T11:34:42;34.17;;;18.67;;
11342;SDS011;5726;42.160;24.746;2024-03-02T11:37:11;40.60;;;20.30;;
11342;SDS011;5726;42.160;24.746;2024-03-02T11:39:41;35.07;;;19.13;;
11342;SDS011;5726;42.160;24.746;2024-03-02T11:42:08;33.13;;;18.97;;
11342;SDS011;5726;42.160;24.746;2024-03-02T11:44:39;41.70;;;20.60;;
11342;SDS011;5726;42.160;24.746;2024-03-02T11:47:06;34.30;;;19.03;;
11342;SDS011;5726;42.160;24.746;2024-03-02T11:49:49;34.77;;;19.13;;
11342;SDS011;5726;42.160;24.746;2024-03-02T11:52:19;39.83;;;20.30;;
11342;SDS011;5726;42.160;24.746;2024-03-02T11:54:47;34.30;;;19.60;;
11342;SDS011;5726;42.160;24.746;2024-03-02T11:57:20;36.37;;;18.97;;
11342;SDS011;5726;42.160;24.746;2024-03-02T11:59:49;39.50;;;20.90;;
11342;SDS011;5726;42.160;24.746;2024-03-02T12:02:16;34.63;;;20.27;;
11342;SDS011;5726;42.160;24.746;2024-03-02T12:04:43;28.30;;;18.13;;
11342;SDS011;5726;42.160;24.746;2024-03-02T12:07:10;27.43;;;17.90;;
11342;SDS011;5726;42.160;24.746;2024-03-02T12:09:36;27.27;;;17.63;;
11342;SDS011;5726;42.160;24.746;2024-03-02T12:12:02;28.73;;;17.93;;
11342;SDS011;5726;42.160;24.746;2024-03-02T12:14:29;29.10;;;17.80;;
11342;SDS011;5726;42.160;24.746;2024-03-02T12:16:55;28.47;;;18.17;;
11342;SDS011;5726;42.160;24.746;2024-03-02T12:19:23;29.57;;;18.07;;
11342;SDS011;5726;42.160;24.746;2024-03-02T12:21:49;28.00;;;18.50;;
11342;SDS011;5726;42.160;24.746;2024-03-02T12:24:15;28.53;;;19.10;;
11342;SDS011;5726;42.160;24.746;2024-03-02T12:26:40;31.40;;;18.90;;
11342;SDS011;5726;42.160;24.746;2024-03-02T12:29:06;35.70;;;20.73;;
11342;SDS011;5726;42.160;24.746;2024-03-02T12:31:32;33.43;;;20.53;;
11342;SDS011;5726;42.160;24.746;2024-03-02T12:33:57;29.83;;;19.47;;
11342;SDS011;5726;42.160;24.746;2024-03-02T12:36:24;33.20;;;20.33;;
11342;SDS011;5726;42.160;24.746;2024-03-02T12:38:52;35.07;;;21.03;;
11342;SDS011;5726;42.160;24.746;2024-03-02T12:41:18;32.27;;;20.07;;
11342;SDS011;5726;42.160;24.746;2024-03-02T12:43:43;35.57;;;21.27;;
11342;SDS011;5726;42.160;24.746;2024-03-02T12:46:09;36.90;;;20.63;;
11342;SDS011;5726;42.160;24.746;2024-03-02T12:48:35;32.67;;;20.27;;
11342;SDS011;5726;42.160;24.746;2024-03-02T12:51:02;30.43;;;20.33;;
11342;SDS011;5726;42.160;24.746;2024-03-02T12:53:27;32.80;;;19.67;;
11342;SDS011;5726;42.160;24.746;2024-03-02T12:55:53;29.03;;;19.17;;
11342;SDS011;5726;42.160;24.746;2024-03-02T12:58:21;29.97;;;19.57;;
11342;SDS011;5726;42.160;24.746;2024-03-02T13:00:48;28.63;;;18.30;;
11342;SDS011;5726;42.160;24.746;2024-03-02T13:03:13;28.70;;;17.90;;
11342;SDS011;5726;42.160;24.746;2024-03-02T13:05:40;28.90;;;18.33;;
11342;SDS011;5726;42.160;24.746;2024-03-02T13:08:06;31.83;;;19.27;;
11342;SDS011;5726;42.160;24.746;2024-03-02T13:10:32;26.93;;;18.73;;
11342;SDS011;5726;42.160;24.746;2024-03-02T13:12:58;25.47;;;18.03;;
11342;SDS011;5726;42.160;24.746;2024-03-02T13:15:26;28.40;;;18.43;;
11342;SDS011;5726;42.160;24.746;2024-03-02T13:17:52;28.23;;;19.07;;
11342;SDS011;5726;42.160;24.746;2024-03-02T13:20:18;28.27;;;19.57;;
11342;SDS011;5726;42.160;24.746;2024-03-02T13:22:44;32.37;;;19.90;;
11342;SDS011;5726;42.160;24.746;2024-03-02T13:25:10;33.93;;;20.80;;
11342;SDS011;5726;42.160;24.746;2024-03-02T13:27:36;33.43;;;21.37;;
11342;SDS011;5726;42.160;24.746;2024-03-02T13:30:02;32.73;;;21.90;;
11342;SDS011;5726;42.160;24.746;2024-03-02T13:32:31;35.53;;;21.67;;
11342;SDS011;5726;42.160;24.746;2024-03-02T13:34:56;33.20;;;21.17;;
11342;SDS011;5726;42.160;24.746;2024-03-02T13:37:22;33.40;;;21.73;;
11342;SDS011;5726;42.160;24.746;2024-03-02T13:39:47;31.60;;;20.80;;
11342;SDS011;5726;42.160;24.746;2024-03-02T13:42:13;30.87;;;20.80;;
11342;SDS011;5726;42.160;24.746;2024-03-02T13:44:40;34.67;;;21.43;;
11342;SDS011;5726;42.160;24.746;2024-03-02T13:47:09;36.53;;;22.60;;
11342;SDS011;5726;42.160;24.746;2024-03-02T13:49:34;38.60;;;24.60;;
11342;SDS011;5726;42.160;24.746;2024-03-02T13:52:05;30.43;;;19.67;;
11342;SDS011;5726;42.160;24.746;2024-03-02T13:54:45;32.97;;;19.63;;
11342;SDS011;5726;42.160;24.746;2024-03-02T13:57:13;30.93;;;19.73;;
11342;SDS011;5726;42.160;24.746;2024-03-02T13:59:40;30.87;;;21.00;;
11342;SDS011;5726;42.160;24.746;2024-03-02T14:02:07;30.37;;;20.03;;
11342;SDS011;5726;42.160;24.746;2024-03-02T14:04:34;31.20;;;20.77;;
11342;SDS011;5726;42.160;24.746;2024-03-02T14:07:00;33.67;;;22.33;;
11342;SDS011;5726;42.160;24.746;2024-03-02T14:09:27;34.73;;;21.13;;
11342;SDS011;5726;42.160;24.746;2024-03-02T14:11:55;33.47;;;20.47;;
11342;SDS011;5726;42.160;24.746;2024-03-02T14:14:21;28.70;;;19.03;;
11342;SDS011;5726;42.160;24.746;2024-03-02T14:16:46;30.50;;;19.77;;
11342;SDS011;5726;42.160;24.746;2024-03-02T14:19:12;29.50;;;18.60;;
11342;SDS011;5726;42.160;24.746;2024-03-02T14:21:38;26.30;;;18.47;;
11342;SDS011;5726;42.160;24.746;2024-03-02T14:24:04;25.43;;;16.97;;
11342;SDS011;5726;42.160;24.746;2024-03-02T14:26:32;22.67;;;15.63;;
11342;SDS011;5726;42.160;24.746;2024-03-02T14:28:58;21.03;;;15.13;;
11342;SDS011;5726;42.160;24.746;2024-03-02T14:31:24;24.30;;;14.60;;
11342;SDS011;5726;42.160;24.746;2024-03-02T14:33:50;19.70;;;14.83;;
11342;SDS011;5726;42.160;24.746;2024-03-02T14:36:16;23.90;;;15.93;;
11342;SDS011;5726;42.160;24.746;2024-03-02T14:38:41;24.83;;;16.07;;